createdAt,value
2022-10-19T00:19:25.482Z,11.77
2022-10-19T00:49:31.625Z,11.50
2022-10-19T01:20:13.848Z,11.16
2022-10-19T02:51:30.502Z,10.65
2022-10-19T03:21:35.026Z,10.40
2022-10-19T03:51:39.172Z,10.22
2022-10-19T04:21:44.778Z,10.34
2022-10-19T04:51:48.860Z,10.12
2022-10-19T05:21:52.964Z,10.01
2022-10-19T05:51:57.135Z,9.90
2022-10-19T06:22:01.289Z,9.97
2022-10-19T06:52:07.674Z,10.43
2022-10-19T07:22:15.534Z,10.75
2022-10-19T07:52:22.966Z,10.82
2022-10-19T08:22:27.191Z,11.17
2022-10-19T08:52:34.675Z,12.70
2022-10-19T09:22:39.035Z,18.16
2022-10-19T09:52:43.854Z,24.18
2022-10-19T10:22:57.585Z,24.27
2022-10-19T10:53:03.310Z,25.09
2022-10-19T11:23:15.752Z,27.15
2022-10-19T11:53:26.884Z,31.80
2022-10-19T12:23:33.909Z,30.40
2022-10-19T12:53:39.954Z,27.29
2022-10-19T13:23:45.344Z,28.05
2022-10-19T13:53:53.342Z,24.51
2022-10-19T14:23:57.468Z,21.63
2022-10-19T14:54:05.197Z,18.01
2022-10-19T15:24:22.654Z,16.25
2022-10-19T15:54:26.942Z,15.15
2022-10-19T16:24:31.077Z,14.61
2022-10-19T16:54:35.227Z,13.80
2022-10-19T17:24:39.930Z,13.49
2022-10-19T17:54:54.638Z,13.20
2022-10-19T18:25:08.976Z,13.07
2022-10-19T18:55:13.277Z,12.83
2022-10-19T19:25:17.716Z,12.40
2022-10-19T19:55:21.904Z,11.96
2022-10-19T20:25:26.054Z,11.88
2022-10-19T20:55:30.480Z,11.46
2022-10-19T21:25:34.589Z,11.11
2022-10-19T21:55:38.820Z,10.86
2022-10-19T22:25:43.183Z,10.91
2022-10-19T22:55:47.359Z,10.57
2022-10-19T23:26:02.176Z,10.36
2022-10-19T23:56:07.895Z,10.12
